Time;durP1;ratioP1;P1;durP2;ratioP2;P2;SDS_P1;SDS_P2;PMS_P1;PMS_P2;Temp;Humidity;BMP_temperature;BMP_pressure;BME280_temperature;BME280_humidity;BME280_pressure;Samples;Min_cycle;Max_cycle;Signal;HPM_P1;HPM_P2
2023/12/03 00:01:57;;;;;;;;;;;0.30;99.90;;;;;;5044835;28;19951;-61
2023/12/03 00:04:23;;;;;;;;;;;0.30;99.90;;;;;;5049344;28;19925;-59
2023/12/03 00:06:52;;;;;;;;;;;0.30;99.90;;;;;;5049283;28;19955;-64
2023/12/03 00:09:19;;;;;;;;;;;0.40;99.90;;;;;;5048381;28;19936;-59
2023/12/03 00:11:46;;;;;;;;;;;0.30;99.90;;;;;;5046100;28;20440;-61
2023/12/03 00:14:13;;;;;;;;;;;0.30;99.90;;;;;;5043799;28;19978;-59
2023/12/03 00:16:39;;;;;;;;;;;0.20;99.90;;;;;;5044526;28;19965;-61
2023/12/03 00:19:06;;;;;;;;;;;0.20;99.90;;;;;;5051022;28;19972;-58
2023/12/03 00:21:33;;;;;;;;;;;0.20;99.90;;;;;;5053598;28;19925;-58
2023/12/03 00:24:02;;;;;;;;;;;0.20;99.90;;;;;;5047675;28;19936;-64
2023/12/03 00:26:29;;;;;;;;;;;0.20;99.90;;;;;;5054023;28;19928;-59
2023/12/03 00:28:56;;;;;;;;;;;0.20;99.90;;;;;;5055217;28;19978;-58
2023/12/03 00:31:23;;;;;;;;;;;0.20;99.90;;;;;;5050550;28;20327;-60
2023/12/03 00:33:49;;;;;;;;;;;0.20;99.90;;;;;;5051968;28;19924;-64
2023/12/03 00:36:16;;;;;;;;;;;0.20;99.90;;;;;;5052446;28;19924;-59
2023/12/03 00:38:43;;;;;;;;;;;0.20;99.90;;;;;;5052093;28;19928;-58
2023/12/03 00:41:10;;;;;;;;;;;0.20;99.90;;;;;;5051094;28;20367;-58
2023/12/03 00:43:37;;;;;;;;;;;0.20;99.90;;;;;;5051533;28;20387;-58
2023/12/03 00:46:04;;;;;;;;;;;0.20;99.90;;;;;;5051586;28;19924;-62
2023/12/03 00:48:30;;;;;;;;;;;0.30;99.90;;;;;;5052266;28;19925;-65
2023/12/03 00:50:57;;;;;;;;;;;0.30;99.90;;;;;;5051797;28;19924;-65
2023/12/03 00:53:24;;;;;;;;;;;0.30;99.90;;;;;;5050514;28;19963;-60
2023/12/03 00:55:52;;;;;;;;;;;0.20;99.90;;;;;;5051743;28;19929;-61
2023/12/03 00:58:19;;;;;;;;;;;0.20;99.90;;;;;;5050370;28;19932;-59
2023/12/03 01:00:46;;;;;;;;;;;0.20;99.90;;;;;;5054034;28;19971;-60
2023/12/03 01:03:13;;;;;;;;;;;0.20;99.90;;;;;;5055336;28;19975;-59
2023/12/03 01:05:39;;;;;;;;;;;0.20;99.90;;;;;;5047989;28;19939;-60
2023/12/03 01:08:06;;;;;;;;;;;0.20;99.90;;;;;;5053753;28;19932;-61
2023/12/03 01:10:33;;;;;;;;;;;0.10;99.90;;;;;;5053057;28;20398;-60
2023/12/03 01:13:00;;;;;;;;;;;0.20;99.90;;;;;;5056503;28;19994;-66
2023/12/03 01:15:27;;;;;;;;;;;0.20;99.90;;;;;;5053542;28;19929;-59
2023/12/03 01:17:54;;;;;;;;;;;0.10;99.90;;;;;;5051023;28;19925;-59
2023/12/03 01:20:21;;;;;;;;;;;0.00;99.90;;;;;;5050118;28;19928;-62
2023/12/03 01:22:48;;;;;;;;;;;0.00;99.90;;;;;;5048253;28;20509;-64
2023/12/03 01:25:15;;;;;;;;;;;0.00;99.90;;;;;;5049358;28;19967;-62
2023/12/03 01:27:41;;;;;;;;;;;0.00;99.90;;;;;;5049631;28;19960;-59
2023/12/03 01:30:09;;;;;;;;;;;0.00;99.90;;;;;;5045190;28;19995;-61
2023/12/03 01:32:36;;;;;;;;;;;0.00;99.90;;;;;;5047110;28;20001;-59
2023/12/03 01:35:03;;;;;;;;;;;-0.10;99.90;;;;;;5052242;28;20272;-58
2023/12/03 01:37:30;;;;;;;;;;;-0.20;99.90;;;;;;5045536;28;19960;-61
2023/12/03 01:39:56;;;;;;;;;;;-0.10;99.90;;;;;;5050510;28;19932;-61
2023/12/03 01:42:24;;;;;;;;;;;0.00;99.90;;;;;;5052696;28;19932;-59
2023/12/03 01:44:51;;;;;;;;;;;0.00;99.90;;;;;;5051188;28;19986;-63
2023/12/03 01:47:20;;;;;;;;;;;0.00;99.90;;;;;;5051470;28;20006;-58
2023/12/03 01:49:47;;;;;;;;;;;0.00;99.90;;;;;;5053075;28;20304;-62
2023/12/03 01:52:15;;;;;;;;;;;0.10;99.90;;;;;;5043725;28;19925;-59
2023/12/03 01:54:43;;;;;;;;;;;0.10;99.90;;;;;;5049165;28;20011;-60
2023/12/03 01:57:10;;;;;;;;;;;0.20;99.90;;;;;;5044921;28;19925;-60
2023/12/03 01:59:37;;;;;;;;;;;0.20;99.90;;;;;;5048740;28;19932;-59
2023/12/03 02:02:04;;;;;;;;;;;0.20;99.90;;;;;;5046715;28;20329;-59
2023/12/03 02:04:31;;;;;;;;;;;0.20;99.90;;;;;;5050506;28;19929;-58
2023/12/03 02:06:57;;;;;;;;;;;0.20;99.90;;;;;;5045274;28;20032;-60
2023/12/03 02:09:24;;;;;;;;;;;0.20;99.90;;;;;;5042863;28;19940;-58
2023/12/03 02:11:51;;;;;;;;;;;0.20;99.90;;;;;;5044543;28;19924;-59
2023/12/03 02:14:18;;;;;;;;;;;0.20;99.90;;;;;;5049858;28;20017;-58
2023/12/03 02:16:46;;;;;;;;;;;0.10;99.90;;;;;;5049636;28;19929;-65
2023/12/03 02:19:13;;;;;;;;;;;0.20;99.90;;;;;;5049818;28;19928;-59
2023/12/03 02:21:40;;;;;;;;;;;0.10;99.90;;;;;;5052057;28;20019;-58
2023/12/03 02:24:07;;;;;;;;;;;0.10;99.90;;;;;;5051349;28;19932;-62
2023/12/03 02:26:34;;;;;;;;;;;0.10;99.90;;;;;;5049239;28;19929;-61
2023/12/03 02:29:01;;;;;;;;;;;0.10;99.90;;;;;;5052519;28;20407;-59
2023/12/03 02:31:29;;;;;;;;;;;0.10;99.90;;;;;;5047613;28;19936;-61
2023/12/03 02:34:07;;;;;;;;;;;0.10;99.90;;;;;;5049313;28;20019;-59
2023/12/03 02:36:34;;;;;;;;;;;0.20;99.90;;;;;;5046991;28;19983;-60
2023/12/03 02:39:01;;;;;;;;;;;0.10;99.90;;;;;;5044420;28;20333;-63
2023/12/03 02:41:28;;;;;;;;;;;0.10;99.90;;;;;;5046546;28;19929;-61
2023/12/03 02:43:55;;;;;;;;;;;0.20;99.90;;;;;;5047553;28;19929;-58
2023/12/03 02:46:22;;;;;;;;;;;0.20;99.90;;;;;;5048787;28;22448;-59
2023/12/03 02:48:49;;;;;;;;;;;0.20;99.90;;;;;;5054159;28;19929;-59
2023/12/03 02:51:16;;;;;;;;;;;0.20;99.90;;;;;;5042468;28;19940;-60
2023/12/03 02:53:43;;;;;;;;;;;0.20;99.90;;;;;;5044605;28;20764;-61
2023/12/03 02:56:11;;;;;;;;;;;0.20;99.90;;;;;;5027815;28;19937;-60
2023/12/03 02:58:38;;;;;;;;;;;0.20;99.90;;;;;;5050643;28;19931;-58
2023/12/03 03:01:06;;;;;;;;;;;0.20;99.90;;;;;;5035935;28;20337;-62
2023/12/03 03:03:32;;;;;;;;;;;0.20;99.90;;;;;;5027605;28;20326;-64
2023/12/03 03:05:59;;;;;;;;;;;0.10;99.90;;;;;;5052423;28;19928;-59
2023/12/03 03:08:26;;;;;;;;;;;0.10;99.90;;;;;;5050077;28;19929;-62
2023/12/03 03:10:53;;;;;;;;;;;0.10;99.90;;;;;;5051821;28;20425;-61
2023/12/03 03:13:20;;;;;;;;;;;0.10;99.90;;;;;;5046429;28;20040;-58
2023/12/03 03:15:46;;;;;;;;;;;0.10;99.90;;;;;;5050331;28;19964;-64
2023/12/03 03:18:13;;;;;;;;;;;0.10;99.90;;;;;;5048704;28;19933;-63
2023/12/03 03:20:40;;;;;;;;;;;0.10;99.90;;;;;;5049455;28;20436;-62
2023/12/03 03:23:07;;;;;;;;;;;0.20;99.90;;;;;;5046038;28;19937;-60
2023/12/03 03:25:34;;;;;;;;;;;0.10;99.90;;;;;;5047853;28;19929;-61
2023/12/03 03:28:00;;;;;;;;;;;0.10;99.90;;;;;;5041027;28;19925;-59
2023/12/03 03:30:27;;;;;;;;;;;0.10;99.90;;;;;;5045298;28;19960;-60
2023/12/03 03:32:54;;;;;;;;;;;0.10;99.90;;;;;;5048636;28;19925;-62
2023/12/03 03:35:21;;;;;;;;;;;0.10;99.90;;;;;;5048080;28;19928;-58
2023/12/03 03:37:48;;;;;;;;;;;0.10;99.90;;;;;;5044092;28;19925;-60
2023/12/03 03:40:15;;;;;;;;;;;0.10;99.90;;;;;;5045804;28;19948;-58
2023/12/03 03:42:41;;;;;;;;;;;0.10;99.90;;;;;;5047410;28;20027;-59
2023/12/03 03:45:08;;;;;;;;;;;0.10;99.90;;;;;;5045604;28;19932;-59
2023/12/03 03:47:36;;;;;;;;;;;0.10;99.90;;;;;;5043473;28;19933;-58
2023/12/03 03:50:04;;;;;;;;;;;0.10;99.90;;;;;;5045007;28;19986;-58
2023/12/03 03:52:31;;;;;;;;;;;0.10;99.90;;;;;;5048932;28;20393;-67
2023/12/03 03:54:58;;;;;;;;;;;0.10;99.90;;;;;;5036868;28;19929;-62
2023/12/03 03:57:25;;;;;;;;;;;0.10;99.90;;;;;;5056378;28;19925;-58
2023/12/03 03:59:51;;;;;;;;;;;0.10;99.90;;;;;;5046800;28;19932;-59
2023/12/03 04:02:18;;;;;;;;;;;0.00;99.90;;;;;;5056761;28;19960;-58
2023/12/03 04:04:45;;;;;;;;;;;0.00;99.90;;;;;;5052039;28;19967;-61
2023/12/03 04:07:12;;;;;;;;;;;0.00;99.90;;;;;;5047799;28;19925;-60
2023/12/03 04:09:39;;;;;;;;;;;0.00;99.90;;;;;;5045082;28;20315;-60
2023/12/03 04:12:06;;;;;;;;;;;0.00;99.90;;;;;;5052013;28;19941;-58
2023/12/03 04:14:33;;;;;;;;;;;0.00;99.90;;;;;;5047605;28;19925;-61
2023/12/03 04:16:59;;;;;;;;;;;0.00;99.90;;;;;;5053015;28;19967;-62
2023/12/03 04:19:26;;;;;;;;;;;0.00;99.90;;;;;;5050254;28;19929;-62
2023/12/03 04:21:53;;;;;;;;;;;0.00;99.90;;;;;;5055717;28;20034;-62
2023/12/03 04:24:20;;;;;;;;;;;0.00;99.90;;;;;;5046825;28;20338;-64
2023/12/03 04:26:47;;;;;;;;;;;0.00;99.90;;;;;;5053258;28;19933;-64
2023/12/03 04:29:14;;;;;;;;;;;0.00;99.90;;;;;;5053798;28;19932;-61
2023/12/03 04:31:40;;;;;;;;;;;0.00;99.90;;;;;;5048824;28;19982;-58
2023/12/03 04:34:08;;;;;;;;;;;0.00;99.90;;;;;;5047296;28;20437;-58
2023/12/03 04:36:35;;;;;;;;;;;0.00;99.90;;;;;;5046013;28;19933;-62
2023/12/03 04:39:04;;;;;;;;;;;0.00;99.90;;;;;;5056239;28;20282;-59
2023/12/03 04:41:35;;;;;;;;;;;-0.10;99.90;;;;;;5049267;28;19948;-58
2023/12/03 04:44:02;;;;;;;;;;;-0.10;99.90;;;;;;5058358;28;19925;-60
2023/12/03 04:46:29;;;;;;;;;;;-0.10;99.90;;;;;;5034848;28;20028;-58
2023/12/03 04:48:56;;;;;;;;;;;-0.10;99.90;;;;;;5048391;28;19975;-59
2023/12/03 04:51:23;;;;;;;;;;;-0.20;99.90;;;;;;5050612;28;19924;-58
2023/12/03 04:53:50;;;;;;;;;;;-0.20;99.90;;;;;;5054127;28;19932;-64
2023/12/03 04:56:17;;;;;;;;;;;-0.30;99.90;;;;;;5054814;28;19960;-61
2023/12/03 04:58:44;;;;;;;;;;;-0.20;99.90;;;;;;5048171;28;20022;-58
2023/12/03 05:01:12;;;;;;;;;;;-0.20;99.90;;;;;;5047566;28;20386;-62
2023/12/03 05:03:43;;;;;;;;;;;-0.20;99.90;;;;;;5047738;28;19925;-66
2023/12/03 05:06:11;;;;;;;;;;;-0.20;99.90;;;;;;5051641;28;19924;-59
2023/12/03 05:08:38;;;;;;;;;;;-0.20;99.90;;;;;;5058301;28;19924;-60
2023/12/03 05:11:06;;;;;;;;;;;-0.10;99.90;;;;;;5050212;28;20027;-60
2023/12/03 05:13:33;;;;;;;;;;;-0.10;99.90;;;;;;5050762;28;19967;-58
2023/12/03 05:16:00;;;;;;;;;;;-0.10;99.90;;;;;;5054133;28;19928;-67
2023/12/03 05:18:27;;;;;;;;;;;-0.10;99.90;;;;;;5034626;28;20282;-59
2023/12/03 05:20:54;;;;;;;;;;;-0.10;99.90;;;;;;5031685;28;20287;-63
2023/12/03 05:23:21;;;;;;;;;;;-0.10;99.90;;;;;;5046142;28;19968;-59
2023/12/03 05:25:47;;;;;;;;;;;-0.10;99.90;;;;;;5055554;28;19932;-60
2023/12/03 05:28:14;;;;;;;;;;;-0.10;99.90;;;;;;5055075;28;19939;-59
2023/12/03 05:30:41;;;;;;;;;;;-0.20;99.90;;;;;;5051481;28;19933;-62
2023/12/03 05:33:10;;;;;;;;;;;-0.10;99.90;;;;;;5057383;28;19928;-60
2023/12/03 05:35:37;;;;;;;;;;;-0.20;99.90;;;;;;5045800;28;19936;-62
2023/12/03 05:38:04;;;;;;;;;;;-0.20;99.90;;;;;;5048997;28;19936;-58
2023/12/03 05:40:30;;;;;;;;;;;-0.20;99.90;;;;;;5051050;28;20390;-63
2023/12/03 05:42:57;;;;;;;;;;;-0.20;99.90;;;;;;5049089;28;19925;-58
2023/12/03 05:45:24;;;;;;;;;;;-0.20;99.90;;;;;;5050190;28;19991;-58
2023/12/03 05:47:51;;;;;;;;;;;-0.30;99.90;;;;;;5049719;28;19929;-59
2023/12/03 05:50:18;;;;;;;;;;;-0.20;99.90;;;;;;5052082;28;20393;-58
2023/12/03 05:52:45;;;;;;;;;;;-0.30;99.90;;;;;;5048394;28;19925;-63
2023/12/03 05:55:12;;;;;;;;;;;-0.20;99.90;;;;;;5057630;28;19968;-58
2023/12/03 05:57:39;;;;;;;;;;;-0.20;99.90;;;;;;5042162;28;19929;-58
2023/12/03 06:00:06;;;;;;;;;;;-0.30;99.90;;;;;;5052077;28;20302;-60
2023/12/03 06:02:36;;;;;;;;;;;-0.30;99.90;;;;;;5047023;28;19984;-59
2023/12/03 06:05:03;;;;;;;;;;;-0.30;99.90;;;;;;5045187;28;19990;-64
2023/12/03 06:07:30;;;;;;;;;;;-0.30;99.90;;;;;;5034269;28;20974;-59
2023/12/03 06:09:57;;;;;;;;;;;-0.30;99.90;;;;;;5046079;28;19935;-59
2023/12/03 06:12:23;;;;;;;;;;;-0.20;99.90;;;;;;5047924;28;20036;-60
2023/12/03 06:14:50;;;;;;;;;;;-0.20;99.90;;;;;;5050831;28;19924;-61
2023/12/03 06:17:17;;;;;;;;;;;-0.30;99.90;;;;;;5051278;28;19929;-64
2023/12/03 06:19:44;;;;;;;;;;;-0.30;99.90;;;;;;5048420;28;19933;-62
2023/12/03 06:22:11;;;;;;;;;;;-0.30;99.90;;;;;;5046777;28;19925;-59
2023/12/03 06:24:38;;;;;;;;;;;-0.30;99.90;;;;;;5047134;28;20386;-66
2023/12/03 06:27:05;;;;;;;;;;;-0.30;99.90;;;;;;5045983;28;19929;-59
2023/12/03 06:29:32;;;;;;;;;;;-0.30;99.90;;;;;;5044236;28;20034;-61
2023/12/03 06:31:59;;;;;;;;;;;-0.30;99.90;;;;;;5043871;28;20018;-59
2023/12/03 06:34:25;;;;;;;;;;;-0.30;99.90;;;;;;5049026;28;19928;-58
2023/12/03 06:36:53;;;;;;;;;;;-0.30;99.90;;;;;;5050398;28;20289;-59
2023/12/03 06:39:20;;;;;;;;;;;-0.30;99.90;;;;;;5045238;28;20446;-58
2023/12/03 06:41:46;;;;;;;;;;;-0.30;99.90;;;;;;5032913;28;20502;-61
2023/12/03 06:44:13;;;;;;;;;;;-0.30;99.90;;;;;;5048190;28;19925;-60
2023/12/03 06:46:45;;;;;;;;;;;-0.30;99.90;;;;;;5054378;28;19951;-60
2023/12/03 06:49:12;;;;;;;;;;;-0.30;99.90;;;;;;5052611;28;19929;-58
2023/12/03 06:51:39;;;;;;;;;;;-0.40;99.90;;;;;;5051638;28;19924;-60
2023/12/03 06:54:06;;;;;;;;;;;-0.40;99.90;;;;;;5050034;28;19929;-60
2023/12/03 06:56:33;;;;;;;;;;;-0.40;99.90;;;;;;5051379;28;19986;-61
2023/12/03 06:59:00;;;;;;;;;;;-0.40;99.90;;;;;;5048071;28;20005;-60
2023/12/03 07:01:27;;;;;;;;;;;-0.40;99.90;;;;;;5061561;28;19956;-60
2023/12/03 07:03:54;;;;;;;;;;;-0.30;99.90;;;;;;5047260;28;19925;-60
2023/12/03 07:06:21;;;;;;;;;;;-0.40;99.90;;;;;;5056182;28;19970;-66
2023/12/03 07:08:47;;;;;;;;;;;-0.40;99.90;;;;;;5052962;28;20015;-62
2023/12/03 07:11:14;;;;;;;;;;;-0.40;99.90;;;;;;5049012;28;19991;-59
2023/12/03 07:13:42;;;;;;;;;;;-0.40;99.90;;;;;;5049577;28;20027;-61
2023/12/03 07:16:10;;;;;;;;;;;-0.40;99.90;;;;;;5052104;28;19982;-58
2023/12/03 07:18:40;;;;;;;;;;;-0.40;99.90;;;;;;5045067;28;19933;-59
2023/12/03 07:21:07;;;;;;;;;;;-0.40;99.90;;;;;;5051362;28;19929;-59
2023/12/03 07:23:34;;;;;;;;;;;-0.50;99.90;;;;;;5050302;28;20015;-59
2023/12/03 07:26:01;;;;;;;;;;;-0.40;99.90;;;;;;5045048;28;19955;-60
2023/12/03 07:28:28;;;;;;;;;;;-0.40;99.90;;;;;;5053572;28;19932;-60
2023/12/03 07:30:54;;;;;;;;;;;-0.40;99.90;;;;;;5048714;28;20010;-58
2023/12/03 07:33:21;;;;;;;;;;;-0.40;99.90;;;;;;5055320;28;19932;-68
2023/12/03 07:35:48;;;;;;;;;;;-0.50;99.90;;;;;;5054213;28;19928;-67
2023/12/03 07:38:15;;;;;;;;;;;-0.50;99.90;;;;;;5053774;28;20379;-61
2023/12/03 07:40:42;;;;;;;;;;;-0.50;99.90;;;;;;5051481;28;19979;-59
2023/12/03 07:43:09;;;;;;;;;;;-0.60;99.90;;;;;;5050443;28;19932;-58
2023/12/03 07:45:36;;;;;;;;;;;-0.50;99.90;;;;;;5058186;28;19932;-60
2023/12/03 07:48:03;;;;;;;;;;;-0.50;99.90;;;;;;5059717;28;19928;-59
2023/12/03 07:50:29;;;;;;;;;;;-0.50;99.90;;;;;;5054105;28;19929;-60
2023/12/03 07:52:56;;;;;;;;;;;-0.70;99.90;;;;;;5053205;28;20479;-58
2023/12/03 07:55:23;;;;;;;;;;;-0.70;99.90;;;;;;5058684;28;19925;-58
2023/12/03 07:57:50;;;;;;;;;;;-0.80;99.90;;;;;;5053493;28;20023;-59
2023/12/03 08:00:17;;;;;;;;;;;-0.80;99.90;;;;;;5051658;28;19933;-61
2023/12/03 08:02:44;;;;;;;;;;;-0.70;99.90;;;;;;5054980;28;19937;-58
2023/12/03 08:05:11;;;;;;;;;;;-0.70;99.90;;;;;;5052290;28;19980;-60
2023/12/03 08:07:37;;;;;;;;;;;-0.70;99.90;;;;;;5054448;28;19924;-61
2023/12/03 08:10:05;;;;;;;;;;;-0.80;99.90;;;;;;5056495;28;19929;-58
2023/12/03 08:12:32;;;;;;;;;;;-0.80;99.90;;;;;;5058831;28;19963;-59
2023/12/03 08:15:00;;;;;;;;;;;-0.70;99.90;;;;;;5051753;28;19968;-59
2023/12/03 08:17:27;;;;;;;;;;;-0.70;99.90;;;;;;5062822;28;19935;-61
2023/12/03 08:19:54;;;;;;;;;;;-0.60;99.90;;;;;;5052022;28;19960;-62
2023/12/03 08:22:20;;;;;;;;;;;-0.50;99.90;;;;;;5054659;28;19928;-58
2023/12/03 08:24:47;;;;;;;;;;;-0.50;99.90;;;;;;5050550;28;20061;-61
2023/12/03 08:27:14;;;;;;;;;;;-0.50;99.90;;;;;;5052131;28;19991;-59
2023/12/03 08:29:41;;;;;;;;;;;-0.50;99.90;;;;;;5046148;28;19933;-58
2023/12/03 08:32:08;;;;;;;;;;;-0.50;99.90;;;;;;5049384;28;19928;-59
2023/12/03 08:34:35;;;;;;;;;;;-0.50;99.90;;;;;;5052999;28;20024;-58
2023/12/03 08:37:02;;;;;;;;;;;-0.50;99.90;;;;;;5051721;28;19932;-58
2023/12/03 08:39:29;;;;;;;;;;;-0.60;99.90;;;;;;5056632;28;19932;-61
2023/12/03 08:41:55;;;;;;;;;;;-0.60;99.90;;;;;;5051469;28;19933;-60
2023/12/03 08:44:22;;;;;;;;;;;-0.60;99.90;;;;;;5051870;28;20363;-59
2023/12/03 08:46:49;;;;;;;;;;;-0.60;99.90;;;;;;5034496;28;20567;-61
2023/12/03 08:49:16;;;;;;;;;;;-0.60;99.90;;;;;;5051088;28;19939;-66
2023/12/03 08:51:43;;;;;;;;;;;-0.60;99.90;;;;;;5047980;28;19925;-62
2023/12/03 08:54:10;;;;;;;;;;;-0.60;99.90;;;;;;5053885;28;19929;-60
2023/12/03 08:56:37;;;;;;;;;;;-0.60;99.90;;;;;;5034343;28;20590;-58
2023/12/03 08:59:04;;;;;;;;;;;-0.60;99.90;;;;;;5049605;28;19925;-58
2023/12/03 09:01:30;;;;;;;;;;;-0.60;99.90;;;;;;5050387;28;20027;-60
2023/12/03 09:03:58;;;;;;;;;;;-0.70;99.90;;;;;;5052206;28;19924;-58
2023/12/03 09:06:24;;;;;;;;;;;-0.70;99.90;;;;;;5049600;28;20332;-59
2023/12/03 09:08:51;;;;;;;;;;;-0.60;99.90;;;;;;5052620;28;19931;-63
2023/12/03 09:11:18;;;;;;;;;;;-0.70;99.90;;;;;;5054672;28;19972;-62
2023/12/03 09:13:45;;;;;;;;;;;-0.70;99.90;;;;;;5051711;28;20402;-59
2023/12/03 09:16:12;;;;;;;;;;;-0.70;99.90;;;;;;5051041;28;19975;-58
2023/12/03 09:18:38;;;;;;;;;;;-0.70;99.90;;;;;;5050634;28;20267;-61
2023/12/03 09:21:07;;;;;;;;;;;-0.70;99.90;;;;;;5053101;28;19928;-60
2023/12/03 09:23:35;;;;;;;;;;;-0.60;99.90;;;;;;5058847;28;19925;-60
2023/12/03 09:26:01;;;;;;;;;;;-0.60;99.90;;;;;;5049951;28;19948;-58
2023/12/03 09:28:32;;;;;;;;;;;-0.60;99.90;;;;;;5046625;28;19928;-59
2023/12/03 09:30:59;;;;;;;;;;;-0.80;99.90;;;;;;5049082;28;19929;-58
2023/12/03 09:33:26;;;;;;;;;;;-0.80;99.90;;;;;;5050140;28;19925;-59
2023/12/03 09:35:55;;;;;;;;;;;-0.80;99.90;;;;;;5049047;28;19968;-58
2023/12/03 09:38:22;;;;;;;;;;;-0.80;99.90;;;;;;5051884;28;20016;-59
2023/12/03 09:40:52;;;;;;;;;;;-0.80;99.90;;;;;;5048929;28;20002;-64
2023/12/03 09:43:20;;;;;;;;;;;-0.70;99.90;;;;;;5046685;28;20024;-58
2023/12/03 09:45:47;;;;;;;;;;;-0.70;99.90;;;;;;5057662;28;19935;-59
2023/12/03 09:48:16;;;;;;;;;;;-0.80;99.90;;;;;;5052962;28;19960;-58
2023/12/03 09:50:44;;;;;;;;;;;-0.80;99.90;;;;;;5055330;28;19978;-58
2023/12/03 09:53:11;;;;;;;;;;;-0.80;99.90;;;;;;5052229;28;19979;-60
2023/12/03 09:55:42;;;;;;;;;;;-0.90;99.90;;;;;;5049132;28;19960;-61
2023/12/03 09:58:09;;;;;;;;;;;-1.00;99.90;;;;;;5057128;28;19925;-60
2023/12/03 10:00:39;;;;;;;;;;;-1.00;99.90;;;;;;5049434;28;20024;-59
2023/12/03 10:03:08;;;;;;;;;;;-1.00;99.90;;;;;;5052100;28;19929;-60
2023/12/03 10:05:34;;;;;;;;;;;-1.00;99.90;;;;;;5045145;28;20433;-60
2023/12/03 10:08:03;;;;;;;;;;;-0.90;99.90;;;;;;5046979;28;19932;-63
2023/12/03 10:10:31;;;;;;;;;;;-0.80;99.90;;;;;;5050886;28;19928;-63
2023/12/03 10:12:59;;;;;;;;;;;-0.80;99.90;;;;;;5053020;28;19995;-59
2023/12/03 10:15:26;;;;;;;;;;;-0.80;99.90;;;;;;5051593;28;19924;-64
2023/12/03 10:17:53;;;;;;;;;;;-0.70;99.90;;;;;;5055192;28;20283;-61
2023/12/03 10:20:21;;;;;;;;;;;-0.70;99.90;;;;;;5035142;28;19935;-61
2023/12/03 10:22:49;;;;;;;;;;;-0.70;99.90;;;;;;5051550;28;19931;-59
2023/12/03 10:25:29;;;;;;;;;;;-0.70;99.90;;;;;;5049873;28;19928;-60
2023/12/03 10:27:57;;;;;;;;;;;-0.70;99.90;;;;;;5046410;28;19951;-59
2023/12/03 10:30:24;;;;;;;;;;;-0.70;99.90;;;;;;5046444;28;19971;-58
2023/12/03 10:32:51;;;;;;;;;;;-0.70;99.90;;;;;;5053518;28;19986;-62
2023/12/03 10:35:20;;;;;;;;;;;-0.70;99.90;;;;;;5050604;28;19932;-62
2023/12/03 10:37:48;;;;;;;;;;;-0.80;99.90;;;;;;5051928;28;19928;-65
2023/12/03 10:40:15;;;;;;;;;;;-0.90;99.90;;;;;;5046441;28;19933;-59
2023/12/03 10:42:43;;;;;;;;;;;-0.90;99.90;;;;;;5051446;28;19928;-64
2023/12/03 10:45:11;;;;;;;;;;;-1.00;99.90;;;;;;5032513;28;20544;-61
2023/12/03 10:47:38;;;;;;;;;;;-1.00;99.90;;;;;;5053461;28;20385;-57
2023/12/03 10:50:06;;;;;;;;;;;-1.10;99.90;;;;;;5048514;28;20047;-60
2023/12/03 10:52:33;;;;;;;;;;;-1.00;99.90;;;;;;5051898;28;19925;-60
2023/12/03 10:55:00;;;;;;;;;;;-1.00;99.90;;;;;;5044381;28;19968;-62
2023/12/03 10:57:31;;;;;;;;;;;-0.90;99.90;;;;;;5051595;28;19929;-64
2023/12/03 11:00:11;;;;;;;;;;;-0.90;99.90;;;;;;5053138;28;19929;-59
2023/12/03 11:02:39;;;;;;;;;;;-0.90;99.90;;;;;;5047275;28;19929;-61
2023/12/03 11:05:08;;;;;;;;;;;-1.00;99.90;;;;;;5052476;28;19991;-61
2023/12/03 11:07:35;;;;;;;;;;;-1.10;99.90;;;;;;5054925;28;19929;-58
2023/12/03 11:10:02;;;;;;;;;;;-1.00;99.90;;;;;;5055961;28;20282;-58
2023/12/03 11:12:29;;;;;;;;;;;-1.10;99.90;;;;;;5048342;28;20264;-59
2023/12/03 11:14:56;;;;;;;;;;;-1.10;99.90;;;;;;5052450;28;20024;-60
2023/12/03 11:17:32;;;;;;;;;;;-1.10;99.90;;;;;;5040116;28;19968;-62
2023/12/03 11:20:05;;;;;;;;;;;-1.00;99.90;;;;;;5042595;28;20019;-59
2023/12/03 11:22:51;;;;;;;;;;;-1.00;99.90;;;;;;5051041;28;20279;-61
2023/12/03 11:25:20;;;;;;;;;;;-1.00;99.90;;;;;;5053009;28;19941;-62
2023/12/03 11:27:47;;;;;;;;;;;-0.90;99.90;;;;;;5043804;28;19936;-62
2023/12/03 11:30:34;;;;;;;;;;;-0.80;99.90;;;;;;5042852;28;20423;-62
2023/12/03 11:33:01;;;;;;;;;;;-0.70;99.90;;;;;;5046501;28;19936;-62
2023/12/03 11:35:28;;;;;;;;;;;-0.60;99.90;;;;;;5035394;28;20382;-60
2023/12/03 11:37:55;;;;;;;;;;;-0.60;99.90;;;;;;5047229;28;19931;-60
2023/12/03 11:40:31;;;;;;;;;;;-0.50;99.90;;;;;;5048216;28;20011;-59
2023/12/03 11:42:58;;;;;;;;;;;-0.50;99.90;;;;;;5047134;28;19929;-60
2023/12/03 11:45:26;;;;;;;;;;;-0.50;99.90;;;;;;5050120;28;19929;-63
2023/12/03 11:48:06;;;;;;;;;;;-0.40;99.90;;;;;;5048514;28;20029;-67
2023/12/03 11:50:38;;;;;;;;;;;-0.40;99.90;;;;;;5055728;28;19925;-59
2023/12/03 11:53:05;;;;;;;;;;;-0.40;99.90;;;;;;5051529;28;20755;-62
2023/12/03 11:55:34;;;;;;;;;;;-0.50;99.90;;;;;;5053849;28;19979;-60
2023/12/03 11:58:01;;;;;;;;;;;-0.50;99.90;;;;;;5048842;28;19933;-59
2023/12/03 12:00:28;;;;;;;;;;;-0.50;99.90;;;;;;5049401;28;19940;-60
2023/12/03 12:02:55;;;;;;;;;;;-0.60;99.90;;;;;;5047903;28;19956;-65
2023/12/03 12:05:22;;;;;;;;;;;-0.70;99.90;;;;;;5053521;28;19951;-62
2023/12/03 12:07:55;;;;;;;;;;;-0.80;99.90;;;;;;5050402;28;19928;-60
2023/12/03 12:10:23;;;;;;;;;;;-0.90;99.90;;;;;;5049133;28;20019;-65
2023/12/03 12:12:49;;;;;;;;;;;-1.00;99.90;;;;;;5050278;28;20014;-60
2023/12/03 12:15:16;;;;;;;;;;;-0.90;99.90;;;;;;5052512;28;19924;-62
2023/12/03 12:17:43;;;;;;;;;;;-0.90;99.90;;;;;;5054769;28;19975;-60
2023/12/03 12:20:10;;;;;;;;;;;-1.00;99.90;;;;;;5053716;28;20394;-60
2023/12/03 12:22:47;;;;;;;;;;;-1.10;99.90;;;;;;5052139;28;20344;-58
2023/12/03 12:25:14;;;;;;;;;;;-1.10;99.90;;;;;;5051689;28;20020;-60
2023/12/03 12:27:42;;;;;;;;;;;-1.10;99.90;;;;;;5051630;28;19933;-58
2023/12/03 12:30:11;;;;;;;;;;;-1.10;99.90;;;;;;5051474;28;20438;-61
2023/12/03 12:32:57;;;;;;;;;;;-1.00;99.90;;;;;;5050271;28;20018;-58
2023/12/03 12:35:24;;;;;;;;;;;-1.00;99.90;;;;;;5053041;28;20306;-63
2023/12/03 12:38:04;;;;;;;;;;;-0.90;99.90;;;;;;5050202;28;20016;-64
2023/12/03 12:40:32;;;;;;;;;;;-0.80;99.90;;;;;;5046760;28;19931;-65
2023/12/03 12:43:06;;;;;;;;;;;-0.80;99.90;;;;;;5052307;28;19925;-58
2023/12/03 12:45:34;;;;;;;;;;;-0.80;99.90;;;;;;5053789;28;19924;-62
2023/12/03 12:48:01;;;;;;;;;;;-0.80;99.90;;;;;;5046173;28;19929;-63
2023/12/03 12:50:32;;;;;;;;;;;-0.80;99.90;;;;;;5050297;28;19986;-58
2023/12/03 12:52:59;;;;;;;;;;;-0.80;99.90;;;;;;5051083;28;19953;-57
2023/12/03 12:55:27;;;;;;;;;;;-0.80;99.90;;;;;;5054658;28;19975;-59
2023/12/03 12:57:54;;;;;;;;;;;-0.70;99.90;;;;;;5052717;28;20361;-61
2023/12/03 13:00:21;;;;;;;;;;;-0.80;99.90;;;;;;5051280;28;19933;-57
2023/12/03 13:02:48;;;;;;;;;;;-0.90;99.90;;;;;;5053165;28;19960;-59
2023/12/03 13:05:15;;;;;;;;;;;-0.90;99.90;;;;;;5055054;28;19925;-57
2023/12/03 13:07:42;;;;;;;;;;;-0.90;99.90;;;;;;5053965;28;20028;-58
2023/12/03 13:10:08;;;;;;;;;;;-0.90;99.90;;;;;;5050280;28;20015;-60
2023/12/03 13:12:35;;;;;;;;;;;-0.90;99.90;;;;;;5047485;28;20012;-58
2023/12/03 13:15:03;;;;;;;;;;;-0.90;99.90;;;;;;5047830;28;19925;-57
2023/12/03 13:17:30;;;;;;;;;;;-1.00;99.90;;;;;;5050028;28;19932;-66
2023/12/03 13:19:57;;;;;;;;;;;-1.20;99.90;;;;;;5051064;28;19952;-61
2023/12/03 13:22:24;;;;;;;;;;;-1.20;99.90;;;;;;5053196;28;20276;-58
2023/12/03 13:24:51;;;;;;;;;;;-1.30;99.90;;;;;;5053787;28;19971;-65
2023/12/03 13:27:18;;;;;;;;;;;-1.40;99.90;;;;;;5055641;28;19935;-58
2023/12/03 13:29:45;;;;;;;;;;;-1.40;99.90;;;;;;5053476;28;19931;-59
2023/12/03 13:32:11;;;;;;;;;;;-1.40;99.90;;;;;;5049754;28;20378;-58
2023/12/03 13:34:38;;;;;;;;;;;-1.30;99.90;;;;;;5049306;28;19952;-58
2023/12/03 13:37:05;;;;;;;;;;;-1.30;99.90;;;;;;5051652;28;20035;-64
2023/12/03 13:39:32;;;;;;;;;;;-1.30;99.90;;;;;;5029989;28;20023;-58
2023/12/03 13:41:59;;;;;;;;;;;-1.30;99.90;;;;;;5049925;28;20264;-57
2023/12/03 13:44:26;;;;;;;;;;;-1.20;99.90;;;;;;5046032;28;19929;-65
2023/12/03 13:46:57;;;;;;;;;;;-1.20;99.90;;;;;;5048290;28;20379;-62
2023/12/03 13:49:24;;;;;;;;;;;-1.10;99.90;;;;;;5052254;28;19959;-58
2023/12/03 13:51:51;;;;;;;;;;;-1.10;99.90;;;;;;5048564;28;19925;-58
2023/12/03 13:54:17;;;;;;;;;;;-1.10;99.90;;;;;;5053045;28;20478;-59
2023/12/03 13:56:44;;;;;;;;;;;-1.00;99.90;;;;;;5048621;28;19972;-60
2023/12/03 13:59:11;;;;;;;;;;;-1.00;99.90;;;;;;5042551;28;20290;-60
2023/12/03 14:01:38;;;;;;;;;;;-0.90;99.90;;;;;;5042330;28;19925;-61
2023/12/03 14:04:05;;;;;;;;;;;-1.00;99.90;;;;;;5047125;28;19929;-63
2023/12/03 14:06:32;;;;;;;;;;;-0.90;99.90;;;;;;5048245;28;19932;-60
2023/12/03 14:09:00;;;;;;;;;;;-0.90;99.90;;;;;;5052831;28;19950;-59
2023/12/03 14:11:27;;;;;;;;;;;-0.90;99.90;;;;;;5045756;28;19979;-60
2023/12/03 14:13:53;;;;;;;;;;;-0.80;99.90;;;;;;5050151;28;19925;-63
2023/12/03 14:16:20;;;;;;;;;;;-0.80;99.90;;;;;;5047768;28;20374;-62
2023/12/03 14:18:47;;;;;;;;;;;-0.80;99.90;;;;;;5054440;28;20027;-59
2023/12/03 14:21:14;;;;;;;;;;;-0.90;99.90;;;;;;5049976;28;19990;-58
2023/12/03 14:23:43;;;;;;;;;;;-0.90;99.90;;;;;;5049311;28;20697;-61